首页
METAR-TAF:

METAR-TAF

机场 :

Fort Belvoir, 弗吉尼亚州, 美国

纬度: 38-43N, 经度: 077-11W, 海拔: 21米

当前天气观测

该预报发布于37分钟前的14:56 UTC
风速10节,风向西北
温度 -2°C
湿度 46%
气压 1035 hPa
能見度: 16.1公里
天空无云

METAR: KDAA 211456Z AUTO 32010KT 10SM CLR M02/M12 A3055 RMK AO2 SLP349 T10211125 52010 $

时间: 10:33 (15:33 UTC)

预报

该预报发布于5小时和33分钟前的10:00 UTC
预报有效从21日的 10点(UTC)到 22日的 16点(UTC)
风速6节,风向北转西北
能见度10公里或以上
天空无云
成为
从 21日的 14点(UTC)到 21日的 15点(UTC)
风速12节,风向,有时为18节阵风
能见度10公里或以上
天空无云
成为
从 21日的 23点(UTC)到 21日的 24点(UTC)
风速6节,风向北转西北
能见度10公里或以上
天空无云

TAF: KDAA 211000Z 2110/2216 33006KT 9999 SKC QNH3043INS BECMG 2114/2115 35012G18KT 9999 SKC QNH3044INS BECMG 2123/2124 34006KT 9999 SKC QNH3042INS TX00/2120Z TNM05/2111Z

超过4000个机场的气象观测和天气预报(METAR&TAF报告)。

可查询的气象台以黄色和红色小点在地图上表示。

将鼠标移到小点上方,可查看气象台名称。

然后点击查看天气观测和预报。

如需切换地图:点击带黑十字的绿色按钮放大地图;点击带横线的绿色按钮缩小地图;或者点击绿色箭头查看邻近地区的地图。


METAR-TAF: